Flight Number: AVA1715 Duration: 2:00
Departure: Frankfurt am Main (EDDF) at 13:30 Distance: 687.699 Nm
Arrival: Riga (EVRA) at 15:30 Equipment: B737

Weather Information
Frankfurt / M-Flughafen, Germany (EDDF) 50-03N 008-36E 113M Apr 07, 2020 - 12:50 PM EDT / 2020.04.07 1650 UTC
Wind: from the NNE (020 degrees) at 12 MPH (10 KT):0
Visibility: greater than 7 mile(s):0 Temperature: 71 F (22 C) Dew Point: 42 F (6 C) Relative Humidity: 35% Pressure (altimeter): 30.33 in. Hg (1027 hPa)
ob: EDDF 071650Z 02010KT CAVOK 22/06 Q1027 NOSIG cycle: 17
Sunrise: 04:50 Sunset: 18:04 (UTC)

Riga International Airport, Latvia (EVRA) 56-55N 023-58E Apr 07, 2020 - 12:50 PM EDT / 2020.04.07 1650 UTC
Wind: from the NW (310 degrees) at 13 MPH (11 KT) gusting to 25 MPH (22 KT) (direction variable):0
Visibility: greater than 7 mile(s):0
Sky conditions: mostly clear Weather: Cumulonimbus clouds observed Temperature: 57 F (14 C) Dew Point: 37 F (3 C) Relative Humidity: 47% Pressure (altimeter): 30.18 in. Hg (1022 hPa)
ob: EVRA 071650Z 31011G22KT 260V340 9999 FEW052CB 14/03 Q1022 NOSIG cycle: 17
Sunrise: 03:38 Sunset: 17:13 (UTC)

TAF:2020/04/07 18:06 TAF TAF EVRA 071703Z 0718/0818 32015KT CAVOK TEMPO 0718/0719 SCT040CB TEMPO 0720/0724 33017G30KT BKN025 BECMG 0808/0810 26007KT

Previous Pireps for this route
Date Aircraft Flight time Fuel used Landing rate On time
2015-07-02MD-8102.2114516-135Yes
2017-01-06MD-8102.0913683-48Yes
2017-05-19MD-8101.5713047-125Yes
2018-01-30MD-8101.5412246-182Yes
2018-10-28MD-812.1415050-260Yes
2019-06-20MD-8102.0114224-111Yes
2019-09-30B7371.5310266-130Yes
(pireps marked green are flown by you)

Route map